createdAt,value
2023-09-18T00:01:22.967Z,19.94
2023-09-18T00:03:49.691Z,19.95
2023-09-18T00:06:16.603Z,19.95
2023-09-18T00:08:47.131Z,19.96
2023-09-18T00:11:14.047Z,19.95
2023-09-18T00:13:40.955Z,19.94
2023-09-18T00:16:07.832Z,19.95
2023-09-18T00:18:34.966Z,19.96
2023-09-18T00:21:01.942Z,19.96
2023-09-18T00:23:28.728Z,19.96
2023-09-18T00:25:56.828Z,19.96
2023-09-18T00:28:23.696Z,19.94
2023-09-18T00:30:51.572Z,19.94
2023-09-18T00:33:20.644Z,19.94
2023-09-18T00:35:48.372Z,19.94
2023-09-18T00:38:15.823Z,19.93
2023-09-18T00:40:42.693Z,19.94
2023-09-18T00:43:12.007Z,19.95
2023-09-18T00:45:42.921Z,19.96
2023-09-18T00:48:10.336Z,19.94
2023-09-18T00:50:38.496Z,19.96
2023-09-18T00:53:06.477Z,19.96
2023-09-18T00:55:33.436Z,19.96
2023-09-18T00:58:00.371Z,19.94
2023-09-18T01:00:28.589Z,19.94
2023-09-18T01:02:55.633Z,19.92
2023-09-18T01:05:22.559Z,19.91
2023-09-18T01:07:49.380Z,19.91
2023-09-18T01:10:18.158Z,19.89
2023-09-18T01:12:48.024Z,19.90
2023-09-18T01:15:21.954Z,19.89
2023-09-18T01:17:50.966Z,19.88
2023-09-18T01:20:18.359Z,19.87
2023-09-18T01:22:46.765Z,19.87
2023-09-18T01:25:13.588Z,19.87
2023-09-18T01:27:40.323Z,19.87
2023-09-18T01:30:08.013Z,19.87
2023-09-18T01:32:37.955Z,19.87
2023-09-18T01:35:09.515Z,19.85
2023-09-18T01:37:38.432Z,19.86
2023-09-18T01:40:08.888Z,19.85
2023-09-18T01:42:36.421Z,19.86
2023-09-18T01:45:04.178Z,19.85
2023-09-18T01:47:31.114Z,19.83
2023-09-18T01:49:58.058Z,19.84
2023-09-18T01:52:24.943Z,19.86
2023-09-18T01:54:51.907Z,19.86
2023-09-18T01:57:19.992Z,19.85
2023-09-18T01:59:47.245Z,19.86
2023-09-18T02:02:18.875Z,19.84
2023-09-18T02:05:06.831Z,19.83
2023-09-18T02:07:37.191Z,19.83
2023-09-18T02:10:04.735Z,19.82
2023-09-18T02:12:32.738Z,19.83
2023-09-18T02:15:02.274Z,19.83
2023-09-18T02:17:29.044Z,19.83
2023-09-18T02:19:55.904Z,19.85
2023-09-18T02:22:22.795Z,19.83
2023-09-18T02:24:49.557Z,19.85
2023-09-18T02:27:18.777Z,19.85
2023-09-18T02:29:47.205Z,19.85
2023-09-18T02:32:14.109Z,19.86
2023-09-18T02:34:41.828Z,19.85
2023-09-18T02:37:08.585Z,19.83
2023-09-18T02:39:35.309Z,19.83
2023-09-18T02:42:02.073Z,19.83
2023-09-18T02:44:29.193Z,19.83
2023-09-18T02:46:57.365Z,19.83
2023-09-18T02:49:24.155Z,19.83
2023-09-18T02:51:51.042Z,19.83
2023-09-18T02:54:17.881Z,19.85
2023-09-18T02:56:44.729Z,19.86
2023-09-18T02:59:11.544Z,19.84
2023-09-18T03:01:38.299Z,19.85
2023-09-18T03:04:07.080Z,19.86
2023-09-18T03:06:33.895Z,19.86
2023-09-18T03:09:00.580Z,19.85
2023-09-18T03:11:30.014Z,19.85
2023-09-18T03:13:56.820Z,19.83
2023-09-18T03:16:23.806Z,19.83
2023-09-18T03:18:51.097Z,19.82
2023-09-18T03:21:19.450Z,19.83
2023-09-18T03:23:46.273Z,19.82
2023-09-18T03:26:12.982Z,19.82
2023-09-18T03:28:40.173Z,19.81
2023-09-18T03:31:08.157Z,19.81
2023-09-18T03:33:34.983Z,19.80
2023-09-18T03:36:05.980Z,19.82
2023-09-18T03:38:36.552Z,19.82
2023-09-18T03:41:03.510Z,19.85
2023-09-18T03:43:30.417Z,19.86
2023-09-18T03:46:04.398Z,19.87
2023-09-18T03:48:37.321Z,19.88
2023-09-18T03:51:04.919Z,19.88
2023-09-18T03:53:31.866Z,19.90
2023-09-18T03:56:00.201Z,19.92
2023-09-18T03:58:27.857Z,19.92
2023-09-18T04:00:54.756Z,19.94
2023-09-18T04:03:21.643Z,19.93
2023-09-18T04:05:48.564Z,19.92
2023-09-18T04:08:15.362Z,19.94
2023-09-18T04:10:42.140Z,19.94
2023-09-18T04:13:10.550Z,19.94
2023-09-18T04:15:38.981Z,19.96
2023-09-18T04:18:08.976Z,19.96
2023-09-18T04:20:37.189Z,19.97
2023-09-18T04:23:24.736Z,19.98
2023-09-18T04:25:52.075Z,19.96
2023-09-18T04:28:21.429Z,19.97
2023-09-18T04:30:48.563Z,19.96
2023-09-18T04:33:16.091Z,19.94
2023-09-18T04:35:44.405Z,19.93
2023-09-18T04:38:12.930Z,19.91
2023-09-18T04:40:41.943Z,19.91
2023-09-18T04:43:09.256Z,19.93
2023-09-18T04:45:37.408Z,19.94
2023-09-18T04:48:07.007Z,19.94
2023-09-18T04:50:35.193Z,19.93
2023-09-18T04:53:02.114Z,19.95
2023-09-18T04:55:28.872Z,19.96
2023-09-18T04:57:55.576Z,19.96
2023-09-18T05:00:26.337Z,19.98
2023-09-18T05:02:54.688Z,19.98
2023-09-18T05:05:22.211Z,20.00
2023-09-18T05:07:49.138Z,20.02
2023-09-18T05:10:15.956Z,20.04
2023-09-18T05:12:51.723Z,20.06
2023-09-18T05:15:18.481Z,20.08
2023-09-18T05:17:53.789Z,20.10
2023-09-18T05:20:25.283Z,20.12
2023-09-18T05:22:54.266Z,20.14
2023-09-18T05:25:22.961Z,20.15
2023-09-18T05:27:50.992Z,20.19
2023-09-18T05:30:24.433Z,20.20
2023-09-18T05:32:51.283Z,20.22
2023-09-18T05:35:18.940Z,20.25
2023-09-18T05:37:47.163Z,20.27
2023-09-18T05:40:15.004Z,20.28
2023-09-18T05:42:45.525Z,20.30
2023-09-18T05:45:12.899Z,20.31
2023-09-18T05:47:40.223Z,20.31
2023-09-18T05:50:09.359Z,20.32
2023-09-18T05:52:36.425Z,20.32
2023-09-18T05:55:06.139Z,20.32
2023-09-18T05:57:33.169Z,20.31
2023-09-18T06:00:00.074Z,20.32
2023-09-18T06:02:27.222Z,20.32
2023-09-18T06:04:56.888Z,20.34
2023-09-18T06:07:25.823Z,20.33
2023-09-18T06:09:52.693Z,20.35
2023-09-18T06:12:20.959Z,20.35
2023-09-18T06:14:49.054Z,20.34
2023-09-18T06:17:16.514Z,20.35
2023-09-18T06:19:47.104Z,20.35
2023-09-18T06:22:14.573Z,20.37
2023-09-18T06:24:41.403Z,20.38
2023-09-18T06:27:08.133Z,20.40
2023-09-18T06:29:38.944Z,20.41
2023-09-18T06:32:07.184Z,20.42
2023-09-18T06:34:34.049Z,20.43
2023-09-18T06:37:00.858Z,20.43
2023-09-18T06:39:27.618Z,20.45
2023-09-18T06:41:54.453Z,20.44
2023-09-18T06:44:22.895Z,20.44
2023-09-18T06:46:51.203Z,20.43
2023-09-18T06:49:17.964Z,20.43
2023-09-18T06:51:44.723Z,20.42
2023-09-18T06:54:11.930Z,20.44
2023-09-18T06:56:38.717Z,20.43
2023-09-18T06:59:06.474Z,20.43
2023-09-18T07:01:34.582Z,20.43
2023-09-18T07:04:03.141Z,20.43
2023-09-18T07:06:30.154Z,20.43
2023-09-18T07:08:57.537Z,20.42
2023-09-18T07:11:26.316Z,20.41
2023-09-18T07:13:53.295Z,20.42
2023-09-18T07:16:20.280Z,20.42
2023-09-18T07:18:47.240Z,20.42
2023-09-18T07:21:15.685Z,20.42
2023-09-18T07:23:42.765Z,20.40
2023-09-18T07:26:10.002Z,20.41
2023-09-18T07:28:36.805Z,20.42
2023-09-18T07:31:07.359Z,20.43
2023-09-18T07:33:34.482Z,20.43
2023-09-18T07:36:01.908Z,20.42
2023-09-18T07:38:30.074Z,20.42
2023-09-18T07:40:58.079Z,20.44
2023-09-18T07:43:26.120Z,20.43
2023-09-18T07:45:54.632Z,20.44
2023-09-18T07:48:23.322Z,20.44
2023-09-18T07:50:52.102Z,20.42
2023-09-18T07:53:19.986Z,20.43
2023-09-18T07:55:49.160Z,20.42
2023-09-18T07:58:15.945Z,20.41
2023-09-18T08:00:42.791Z,20.42
2023-09-18T08:03:10.069Z,20.42
2023-09-18T08:05:37.022Z,20.41
2023-09-18T08:08:06.739Z,20.42
2023-09-18T08:10:37.600Z,20.43
2023-09-18T08:13:05.775Z,20.43
2023-09-18T08:15:32.565Z,20.45
2023-09-18T08:18:00.109Z,20.43
2023-09-18T08:20:27.648Z,20.43
2023-09-18T08:22:56.199Z,20.43
2023-09-18T08:25:24.423Z,20.42
2023-09-18T08:27:51.208Z,20.43
2023-09-18T08:30:22.070Z,20.45
2023-09-18T08:32:49.349Z,20.47
2023-09-18T08:35:16.232Z,20.49
2023-09-18T08:37:43.920Z,20.50
2023-09-18T08:40:11.974Z,20.49
2023-09-18T08:42:42.169Z,20.50
2023-09-18T08:45:11.981Z,20.50
2023-09-18T08:47:42.394Z,20.53
2023-09-18T08:50:13.609Z,20.55
2023-09-18T08:52:41.078Z,20.55
2023-09-18T08:55:10.446Z,20.55
2023-09-18T08:57:39.323Z,20.56
2023-09-18T09:00:08.788Z,20.57
2023-09-18T09:02:36.847Z,20.56
2023-09-18T09:05:05.927Z,20.56
2023-09-18T09:07:32.945Z,20.57
2023-09-18T09:09:59.924Z,20.57
2023-09-18T09:12:52.677Z,20.58
2023-09-18T09:15:20.201Z,20.56
2023-09-18T09:17:47.341Z,20.58
2023-09-18T09:20:17.109Z,20.60
2023-09-18T09:22:44.023Z,20.61
2023-09-18T09:25:25.511Z,20.61
2023-09-18T09:27:52.188Z,20.63
2023-09-18T09:30:21.373Z,20.64
2023-09-18T09:32:50.557Z,20.66
2023-09-18T09:35:30.116Z,20.68
2023-09-18T09:37:58.703Z,20.71
2023-09-18T09:40:26.937Z,20.74
2023-09-18T09:42:58.613Z,20.77
2023-09-18T09:45:25.390Z,20.80
2023-09-18T09:47:55.448Z,20.85
2023-09-18T09:50:27.333Z,20.88
2023-09-18T09:52:55.910Z,20.90
2023-09-18T09:55:29.555Z,20.93
2023-09-18T09:57:59.082Z,20.97
2023-09-18T10:00:31.591Z,21.01
2023-09-18T10:03:00.290Z,21.04
2023-09-18T10:05:34.207Z,21.09
2023-09-18T10:08:04.903Z,21.13
2023-09-18T10:10:34.898Z,21.17
2023-09-18T10:13:08.654Z,21.21
2023-09-18T10:15:39.953Z,21.26
2023-09-18T10:18:12.509Z,21.30
2023-09-18T10:20:45.168Z,21.33
2023-09-18T10:23:25.457Z,21.35
2023-09-18T10:25:56.598Z,21.38
2023-09-18T10:28:28.932Z,21.39
2023-09-18T10:30:58.173Z,21.40
2023-09-18T10:33:26.014Z,21.41
2023-09-18T10:35:57.088Z,21.44
2023-09-18T10:38:24.506Z,21.45
2023-09-18T10:40:52.282Z,21.44
2023-09-18T10:43:19.886Z,21.45
2023-09-18T10:45:47.482Z,21.47
2023-09-18T10:48:16.352Z,21.48
2023-09-18T10:50:44.704Z,21.49
2023-09-18T10:53:13.928Z,21.52
2023-09-18T10:55:43.143Z,21.53
2023-09-18T10:58:10.093Z,21.51
2023-09-18T11:00:37.910Z,21.52
2023-09-18T11:03:13.229Z,21.53
2023-09-18T11:05:40.147Z,21.53
2023-09-18T11:08:28.739Z,21.54
2023-09-18T11:11:11.229Z,21.57
2023-09-18T11:13:42.061Z,21.63
2023-09-18T11:16:20.652Z,21.71
2023-09-18T11:18:53.684Z,21.76
2023-09-18T11:21:26.315Z,21.85
2023-09-18T11:24:02.293Z,21.91
2023-09-18T11:26:33.437Z,21.99
2023-09-18T11:29:02.394Z,22.05
2023-09-18T11:31:46.182Z,22.11
2023-09-18T11:34:14.637Z,22.16
2023-09-18T11:36:41.726Z,22.19
2023-09-18T11:39:10.610Z,22.20
2023-09-18T11:41:39.690Z,22.19
2023-09-18T11:44:38.191Z,22.17
2023-09-18T11:47:08.987Z,22.14
2023-09-18T11:49:36.482Z,22.08
2023-09-18T11:52:06.914Z,22.02
2023-09-18T11:54:35.678Z,21.97
2023-09-18T11:57:05.977Z,21.96
2023-09-18T11:59:38.819Z,21.90
2023-09-18T12:02:07.443Z,21.89
2023-09-18T12:04:34.485Z,21.86
2023-09-18T12:07:01.603Z,21.85
2023-09-18T12:09:28.615Z,21.87
2023-09-18T12:11:58.418Z,21.92
2023-09-18T12:14:25.417Z,21.96
2023-09-18T12:16:52.225Z,22.00
2023-09-18T12:19:20.058Z,22.05
2023-09-18T12:21:51.013Z,22.09
2023-09-18T12:24:23.170Z,22.14
2023-09-18T12:26:50.454Z,22.17
2023-09-18T12:29:18.790Z,22.17
2023-09-18T12:31:46.774Z,22.19
2023-09-18T12:34:17.582Z,22.20
2023-09-18T12:36:44.931Z,22.23
2023-09-18T12:39:11.882Z,22.24
2023-09-18T12:41:39.199Z,22.26
2023-09-18T12:44:07.224Z,22.25
2023-09-18T12:46:35.857Z,22.27
2023-09-18T12:49:17.046Z,22.29
2023-09-18T12:51:45.495Z,22.30
2023-09-18T12:54:14.754Z,22.32
2023-09-18T12:56:42.365Z,22.36
2023-09-18T12:59:15.344Z,22.40
2023-09-18T13:01:47.983Z,22.45
2023-09-18T13:04:15.073Z,22.50
2023-09-18T13:06:42.618Z,22.55
2023-09-18T13:09:20.878Z,22.58
2023-09-18T13:11:57.789Z,22.60
2023-09-18T13:14:28.250Z,22.64
2023-09-18T13:17:01.634Z,22.69
2023-09-18T13:19:28.706Z,22.72
2023-09-18T13:21:56.670Z,22.74
2023-09-18T13:24:30.334Z,22.76
2023-09-18T13:26:58.047Z,22.78
2023-09-18T13:29:25.237Z,22.82
2023-09-18T13:31:52.485Z,22.84
2023-09-18T13:34:20.739Z,22.84
2023-09-18T13:36:47.824Z,22.83
2023-09-18T13:39:18.050Z,22.84
2023-09-18T13:41:45.602Z,22.84
2023-09-18T13:44:12.658Z,22.87
2023-09-18T13:46:39.647Z,22.89
2023-09-18T13:49:07.048Z,22.91
2023-09-18T13:51:35.321Z,22.93
2023-09-18T13:54:02.112Z,22.97
2023-09-18T13:56:30.575Z,23.01
2023-09-18T13:58:57.382Z,23.03
2023-09-18T14:01:25.923Z,23.07
2023-09-18T14:03:52.753Z,23.07
2023-09-18T14:06:19.816Z,23.06
2023-09-18T14:08:48.182Z,23.04
2023-09-18T14:11:15.408Z,23.04
2023-09-18T14:13:43.404Z,23.03
2023-09-18T14:16:11.907Z,23.04
2023-09-18T14:18:38.782Z,23.07
2023-09-18T14:21:06.744Z,23.06
2023-09-18T14:23:35.291Z,23.08
2023-09-18T14:26:03.812Z,23.10
2023-09-18T14:28:30.596Z,23.11
2023-09-18T14:30:57.337Z,23.11
2023-09-18T14:33:24.266Z,23.11
2023-09-18T14:35:51.258Z,23.10
2023-09-18T14:38:18.149Z,23.07
2023-09-18T14:40:44.850Z,23.06
2023-09-18T14:43:13.003Z,23.03
2023-09-18T14:45:41.380Z,23.01
2023-09-18T14:48:11.083Z,23.01
2023-09-18T14:50:38.131Z,22.99
2023-09-18T14:53:05.417Z,22.98
2023-09-18T14:55:32.373Z,22.97
2023-09-18T14:57:59.279Z,22.97
2023-09-18T15:00:27.478Z,22.95
2023-09-18T15:02:54.393Z,22.94
2023-09-18T15:05:21.296Z,22.91
2023-09-18T15:07:48.088Z,22.90
2023-09-18T15:10:14.811Z,22.89
2023-09-18T15:12:42.621Z,22.89
2023-09-18T15:15:10.037Z,22.88
2023-09-18T15:17:39.776Z,22.87
2023-09-18T15:20:15.531Z,22.87
2023-09-18T15:22:42.317Z,22.86
2023-09-18T15:25:09.629Z,22.85
2023-09-18T15:27:36.720Z,22.83
2023-09-18T15:30:06.126Z,22.82
2023-09-18T15:32:51.737Z,22.80
2023-09-18T15:35:18.874Z,22.79
2023-09-18T15:37:45.805Z,22.77
2023-09-18T15:40:14.684Z,22.72
2023-09-18T15:42:41.422Z,22.56
2023-09-18T15:45:12.261Z,22.27
2023-09-18T15:47:39.319Z,21.89
2023-09-18T15:50:08.174Z,21.53
2023-09-18T15:52:34.977Z,21.25
2023-09-18T15:55:02.769Z,21.00
2023-09-18T15:57:30.011Z,20.78
2023-09-18T15:59:56.961Z,20.59
2023-09-18T16:02:24.855Z,20.41
2023-09-18T16:04:54.110Z,20.28
2023-09-18T16:07:22.652Z,20.16
2023-09-18T16:09:49.397Z,20.06
2023-09-18T16:12:16.221Z,19.99
2023-09-18T16:14:43.160Z,19.90
2023-09-18T16:17:09.960Z,19.80
2023-09-18T16:19:37.039Z,19.75
2023-09-18T16:22:05.659Z,19.71
2023-09-18T16:24:33.982Z,19.68
2023-09-18T16:27:00.791Z,19.63
2023-09-18T16:29:29.024Z,19.59
2023-09-18T16:31:56.120Z,19.54
2023-09-18T16:34:25.667Z,19.48
2023-09-18T16:36:53.017Z,19.42
2023-09-18T16:39:22.890Z,19.37
2023-09-18T16:41:51.040Z,19.35
2023-09-18T16:44:17.992Z,19.29
2023-09-18T16:46:44.664Z,19.26
2023-09-18T16:49:13.290Z,19.22
2023-09-18T16:51:40.955Z,19.18
2023-09-18T16:54:07.819Z,19.15
2023-09-18T16:56:36.300Z,19.11
2023-09-18T16:59:04.555Z,19.09
2023-09-18T17:01:31.659Z,19.08
2023-09-18T17:03:59.188Z,19.08
2023-09-18T17:06:27.981Z,19.10
2023-09-18T17:08:54.990Z,19.10
2023-09-18T17:11:23.794Z,19.11
2023-09-18T17:13:50.493Z,19.11
2023-09-18T17:16:20.896Z,19.11
2023-09-18T17:18:47.645Z,19.09
2023-09-18T17:21:15.374Z,19.09
2023-09-18T17:23:43.761Z,19.10
2023-09-18T17:26:12.098Z,19.10
2023-09-18T17:28:38.775Z,19.08
2023-09-18T17:31:06.290Z,19.08
2023-09-18T17:33:34.578Z,19.08
2023-09-18T17:36:01.442Z,19.06
2023-09-18T17:38:28.259Z,19.05
2023-09-18T17:40:55.147Z,19.02
2023-09-18T17:43:21.916Z,19.00
2023-09-18T17:45:48.771Z,18.99
2023-09-18T17:48:15.926Z,18.97
2023-09-18T17:50:44.133Z,18.95
2023-09-18T17:53:10.867Z,18.95
2023-09-18T17:55:38.475Z,18.94
2023-09-18T17:58:05.243Z,18.91
2023-09-18T18:00:32.034Z,18.89
2023-09-18T18:02:58.984Z,18.89
2023-09-18T18:05:30.129Z,18.89
2023-09-18T18:07:58.830Z,18.89
2023-09-18T18:10:25.587Z,18.87
2023-09-18T18:12:52.306Z,18.85
2023-09-18T18:15:19.362Z,18.84
2023-09-18T18:17:46.545Z,18.86
2023-09-18T18:20:16.813Z,18.84
2023-09-18T18:22:43.584Z,18.85
2023-09-18T18:25:13.869Z,18.85
2023-09-18T18:27:40.646Z,18.83
2023-09-18T18:30:08.969Z,18.83
2023-09-18T18:32:36.891Z,18.84
2023-09-18T18:35:03.903Z,18.85
2023-09-18T18:37:33.724Z,18.84
2023-09-18T18:40:00.700Z,18.85
2023-09-18T18:42:29.977Z,18.85
2023-09-18T18:44:57.665Z,18.85
2023-09-18T18:47:26.154Z,18.84
2023-09-18T18:49:53.107Z,18.84
2023-09-18T18:52:19.832Z,18.85
2023-09-18T18:54:49.620Z,18.85
2023-09-18T18:57:18.074Z,18.86
2023-09-18T18:59:46.576Z,18.85
2023-09-18T19:02:13.773Z,18.85
2023-09-18T19:04:40.573Z,18.85
2023-09-18T19:07:07.802Z,18.85
2023-09-18T19:09:35.230Z,18.84
2023-09-18T19:12:02.196Z,18.82
2023-09-18T19:14:29.827Z,18.81
2023-09-18T19:17:00.194Z,18.81
2023-09-18T19:19:26.964Z,18.80
2023-09-18T19:21:53.677Z,18.80
2023-09-18T19:24:21.408Z,18.78
2023-09-18T19:26:48.905Z,18.78
2023-09-18T19:29:17.415Z,18.79
2023-09-18T19:31:48.103Z,18.78
2023-09-18T19:34:16.589Z,18.77
2023-09-18T19:36:52.539Z,18.75
2023-09-18T19:39:25.960Z,18.75
2023-09-18T19:41:58.024Z,18.75
2023-09-18T19:44:26.136Z,18.75
2023-09-18T19:46:53.091Z,18.73
2023-09-18T19:49:21.849Z,18.73
2023-09-18T19:51:48.892Z,18.73
2023-09-18T19:54:16.227Z,18.72
2023-09-18T19:56:43.174Z,18.71
2023-09-18T19:59:10.030Z,18.72
2023-09-18T20:01:36.975Z,18.73
2023-09-18T20:04:06.045Z,18.73
2023-09-18T20:06:34.404Z,18.70
2023-09-18T20:09:04.203Z,18.68
2023-09-18T20:11:31.633Z,18.68
2023-09-18T20:13:59.223Z,18.66
2023-09-18T20:16:26.054Z,18.68
2023-09-18T20:18:53.744Z,18.66
2023-09-18T20:21:22.144Z,18.66
2023-09-18T20:23:50.418Z,18.65
2023-09-18T20:26:17.170Z,18.64
2023-09-18T20:28:44.229Z,18.63
2023-09-18T20:31:10.962Z,18.63
2023-09-18T20:33:37.917Z,18.62
2023-09-18T20:36:05.206Z,18.61
2023-09-18T20:38:32.660Z,18.59
2023-09-18T20:41:00.988Z,18.58
2023-09-18T20:43:27.931Z,18.55
2023-09-18T20:45:55.698Z,18.56
2023-09-18T20:48:22.706Z,18.51
2023-09-18T20:50:50.063Z,18.47
2023-09-18T20:53:18.993Z,18.46
2023-09-18T20:55:45.895Z,18.43
2023-09-18T20:58:14.538Z,18.42
2023-09-18T21:00:41.274Z,18.40
2023-09-18T21:03:08.292Z,18.36
2023-09-18T21:05:35.286Z,18.34
2023-09-18T21:08:03.316Z,18.32
2023-09-18T21:12:59.936Z,18.29
2023-09-18T21:15:29.114Z,18.28
2023-09-18T21:17:56.158Z,18.25
2023-09-18T21:20:23.454Z,18.24
2023-09-18T21:22:50.336Z,18.20
2023-09-18T21:25:17.892Z,18.18
2023-09-18T21:27:44.795Z,18.16
2023-09-18T21:30:12.413Z,18.14
2023-09-18T21:32:40.743Z,18.10
2023-09-18T21:35:08.256Z,18.09
2023-09-18T21:37:35.056Z,18.07
2023-09-18T21:40:06.122Z,18.07
2023-09-18T21:42:33.285Z,18.04
2023-09-18T21:45:06.534Z,18.00
2023-09-18T21:47:34.462Z,17.98
2023-09-18T21:50:05.518Z,17.96
2023-09-18T21:52:32.554Z,17.93
2023-09-18T21:54:59.632Z,17.89
2023-09-18T21:57:26.526Z,17.87
2023-09-18T21:59:54.497Z,17.86
2023-09-18T22:02:21.920Z,17.85
2023-09-18T22:04:48.749Z,17.83
2023-09-18T22:07:16.957Z,17.79
2023-09-18T22:09:49.524Z,17.77
2023-09-18T22:12:16.474Z,17.75
2023-09-18T22:14:43.927Z,17.73
2023-09-18T22:17:10.787Z,17.70
2023-09-18T22:19:37.537Z,17.71
2023-09-18T22:22:04.465Z,17.68
2023-09-18T22:24:32.732Z,17.67
2023-09-18T22:26:59.502Z,17.64
2023-09-18T22:29:26.614Z,17.62
2023-09-18T22:31:54.850Z,17.60
2023-09-18T22:34:22.233Z,17.57
2023-09-18T22:36:51.867Z,17.54
2023-09-18T22:39:40.840Z,17.52
2023-09-18T22:42:17.512Z,17.52
2023-09-18T22:45:21.939Z,17.51
2023-09-18T22:48:26.440Z,17.48
2023-09-18T22:51:30.525Z,17.47
2023-09-18T22:53:57.402Z,17.45
2023-09-18T22:56:27.040Z,17.41
2023-09-18T22:58:54.486Z,17.43
2023-09-18T23:01:21.788Z,17.42
2023-09-18T23:03:48.902Z,17.42
2023-09-18T23:06:16.055Z,17.43
2023-09-18T23:08:42.936Z,17.41
2023-09-18T23:11:09.901Z,17.39
2023-09-18T23:13:38.495Z,17.36
2023-09-18T23:16:05.548Z,17.36
2023-09-18T23:18:33.752Z,17.33
2023-09-18T23:21:01.522Z,17.27
2023-09-18T23:23:28.318Z,17.22
2023-09-18T23:25:55.394Z,17.18
2023-09-18T23:28:22.253Z,17.14
2023-09-18T23:30:52.723Z,17.10
2023-09-18T23:33:21.325Z,17.06
2023-09-18T23:35:48.117Z,17.02
2023-09-18T23:38:17.448Z,16.98
2023-09-18T23:40:45.853Z,16.97
2023-09-18T23:43:12.967Z,16.93
2023-09-18T23:45:44.861Z,16.92
2023-09-18T23:48:16.399Z,16.91
2023-09-18T23:50:43.726Z,16.88
2023-09-18T23:53:14.356Z,16.86
2023-09-18T23:55:42.545Z,16.84
2023-09-18T23:58:18.075Z,16.84
